sensor_id;sensor_type;location;lat;lon;timestamp;pressure;altitude;pressure_sealevel;temperature;humidity
65280;BME280;51878;55.748;48.742;2022-11-21T00:03:45;99676.88;;;-6.23;100.00
65280;BME280;51878;55.748;48.742;2022-11-21T00:06:12;99673.00;;;-6.16;100.00
65280;BME280;51878;55.748;48.742;2022-11-21T00:08:39;99685.34;;;-5.82;100.00
65280;BME280;51878;55.748;48.742;2022-11-21T00:11:06;99574.16;;;-6.43;100.00
65280;BME280;51878;55.748;48.742;2022-11-21T00:13:33;99663.00;;;-5.74;100.00
65280;BME280;51878;55.748;48.742;2022-11-21T00:16:05;99662.81;;;-5.89;100.00
65280;BME280;51878;55.748;48.742;2022-11-21T00:18:33;99602.59;;;-6.68;100.00
65280;BME280;51878;55.748;48.742;2022-11-21T00:21:10;99675.78;;;-6.36;100.00
65280;BME280;51878;55.748;48.742;2022-11-21T00:23:38;99622.22;;;-6.75;100.00
65280;BME280;51878;55.748;48.742;2022-11-21T00:26:07;99641.78;;;-6.42;100.00
65280;BME280;51878;55.748;48.742;2022-11-21T00:28:35;99663.06;;;-5.93;100.00
65280;BME280;51878;55.748;48.742;2022-11-21T00:31:03;99650.91;;;-5.96;100.00
65280;BME280;51878;55.748;48.742;2022-11-21T00:33:31;99666.09;;;-5.84;100.00
65280;BME280;51878;55.748;48.742;2022-11-21T00:35:58;99596.75;;;-6.20;100.00
65280;BME280;51878;55.748;48.742;2022-11-21T00:38:31;99639.72;;;-5.84;100.00
65280;BME280;51878;55.748;48.742;2022-11-21T00:40:58;99618.56;;;-5.99;100.00
65280;BME280;51878;55.748;48.742;2022-11-21T00:43:25;99608.50;;;-5.93;100.00
65280;BME280;51878;55.748;48.742;2022-11-21T00:45:52;99628.34;;;-5.68;100.00
65280;BME280;51878;55.748;48.742;2022-11-21T00:48:19;99638.03;;;-5.51;100.00
65280;BME280;51878;55.748;48.742;2022-11-21T00:50:49;99655.66;;;-5.52;100.00
65280;BME280;51878;55.748;48.742;2022-11-21T00:53:16;99536.38;;;-6.09;100.00
65280;BME280;51878;55.748;48.742;2022-11-21T00:55:43;99648.06;;;-5.58;100.00
65280;BME280;51878;55.748;48.742;2022-11-21T00:58:10;99634.72;;;-5.72;100.00
65280;BME280;51878;55.748;48.742;2022-11-21T01:00:37;99585.41;;;-6.05;100.00
65280;BME280;51878;55.748;48.742;2022-11-21T01:03:04;99651.09;;;-5.66;100.00
65280;BME280;51878;55.748;48.742;2022-11-21T01:05:32;99649.38;;;-5.67;100.00
65280;BME280;51878;55.748;48.742;2022-11-21T01:07:59;99597.53;;;-5.85;100.00
65280;BME280;51878;55.748;48.742;2022-11-21T01:10:26;99600.78;;;-5.80;100.00
65280;BME280;51878;55.748;48.742;2022-11-21T01:12:53;99527.38;;;-6.40;100.00
65280;BME280;51878;55.748;48.742;2022-11-21T01:15:20;99627.53;;;-5.86;100.00
65280;BME280;51878;55.748;48.742;2022-11-21T01:17:47;99654.84;;;-6.22;100.00
65280;BME280;51878;55.748;48.742;2022-11-21T01:20:14;99647.34;;;-6.49;100.00
65280;BME280;51878;55.748;48.742;2022-11-21T01:22:41;99640.75;;;-6.57;100.00
65280;BME280;51878;55.748;48.742;2022-11-21T01:25:08;99644.94;;;-6.17;100.00
65280;BME280;51878;55.748;48.742;2022-11-21T01:27:35;99641.94;;;-5.93;100.00
65280;BME280;51878;55.748;48.742;2022-11-21T01:30:02;99652.38;;;-5.73;100.00
65280;BME280;51878;55.748;48.742;2022-11-21T01:32:30;99654.75;;;-5.68;100.00
65280;BME280;51878;55.748;48.742;2022-11-21T01:34:57;99616.19;;;-5.88;100.00
65280;BME280;51878;55.748;48.742;2022-11-21T01:37:24;99606.50;;;-6.40;100.00
65280;BME280;51878;55.748;48.742;2022-11-21T01:39:51;99660.63;;;-6.33;100.00
65280;BME280;51878;55.748;48.742;2022-11-21T01:42:18;99555.78;;;-7.18;100.00
65280;BME280;51878;55.748;48.742;2022-11-21T01:44:50;99675.34;;;-6.10;100.00
65280;BME280;51878;55.748;48.742;2022-11-21T01:47:19;99599.28;;;-6.36;100.00
65280;BME280;51878;55.748;48.742;2022-11-21T01:49:48;99675.09;;;-5.88;100.00
65280;BME280;51878;55.748;48.742;2022-11-21T01:52:30;99595.09;;;-6.77;100.00
65280;BME280;51878;55.748;48.742;2022-11-21T01:55:05;99666.75;;;-6.50;100.00
65280;BME280;51878;55.748;48.742;2022-11-21T01:57:40;99606.13;;;-6.32;100.00
65280;BME280;51878;55.748;48.742;2022-11-21T02:00:34;99681.41;;;-5.73;100.00
65280;BME280;51878;55.748;48.742;2022-11-21T02:03:07;99592.16;;;-6.52;100.00
65280;BME280;51878;55.748;48.742;2022-11-21T02:05:36;99601.53;;;-6.29;100.00
65280;BME280;51878;55.748;48.742;2022-11-21T02:08:18;99594.09;;;-6.38;100.00
65280;BME280;51878;55.748;48.742;2022-11-21T02:11:08;99686.59;;;-5.71;100.00
65280;BME280;51878;55.748;48.742;2022-11-21T02:13:36;99667.13;;;-5.69;100.00
65280;BME280;51878;55.748;48.742;2022-11-21T02:16:04;99658.53;;;-5.56;100.00
65280;BME280;51878;55.748;48.742;2022-11-21T02:18:31;99641.25;;;-5.62;100.00
65280;BME280;51878;55.748;48.742;2022-11-21T02:24:03;99688.97;;;-5.49;100.00
65280;BME280;51878;55.748;48.742;2022-11-21T02:26:31;99659.78;;;-5.46;100.00
65280;BME280;51878;55.748;48.742;2022-11-21T02:28:58;99609.25;;;-5.73;100.00
65280;BME280;51878;55.748;48.742;2022-11-21T02:31:25;99668.09;;;-5.21;100.00
65280;BME280;51878;55.748;48.742;2022-11-21T02:33:52;99656.34;;;-5.31;100.00
65280;BME280;51878;55.748;48.742;2022-11-21T02:36:43;99675.06;;;-5.35;100.00
65280;BME280;51878;55.748;48.742;2022-11-21T02:39:22;99660.31;;;-5.40;100.00
65280;BME280;51878;55.748;48.742;2022-11-21T02:42:05;99666.03;;;-5.31;100.00
65280;BME280;51878;55.748;48.742;2022-11-21T02:44:44;99612.91;;;-5.76;99.94
65280;BME280;51878;55.748;48.742;2022-11-21T02:47:14;99590.22;;;-5.80;100.00
65280;BME280;51878;55.748;48.742;2022-11-21T02:50:02;99585.44;;;-5.89;100.00
65280;BME280;51878;55.748;48.742;2022-11-21T02:52:35;99644.63;;;-5.60;100.00
65280;BME280;51878;55.748;48.742;2022-11-21T02:55:03;99627.28;;;-5.31;100.00
65280;BME280;51878;55.748;48.742;2022-11-21T02:57:31;99623.59;;;-5.28;100.00
65280;BME280;51878;55.748;48.742;2022-11-21T02:59:58;99629.66;;;-5.26;100.00
65280;BME280;51878;55.748;48.742;2022-11-21T03:02:25;99629.16;;;-5.17;100.00
65280;BME280;51878;55.748;48.742;2022-11-21T03:04:52;99609.88;;;-5.35;99.78
65280;BME280;51878;55.748;48.742;2022-11-21T03:07:19;99631.03;;;-5.19;99.30
65280;BME280;51878;55.748;48.742;2022-11-21T03:09:47;99623.44;;;-5.25;98.80
65280;BME280;51878;55.748;48.742;2022-11-21T03:12:14;99614.31;;;-5.35;99.05
65280;BME280;51878;55.748;48.742;2022-11-21T03:14:41;99644.69;;;-5.11;98.87
65280;BME280;51878;55.748;48.742;2022-11-21T03:17:08;99585.78;;;-5.62;98.96
65280;BME280;51878;55.748;48.742;2022-11-21T03:19:35;99568.88;;;-5.75;98.43
65280;BME280;51878;55.748;48.742;2022-11-21T03:22:02;99653.72;;;-5.15;98.13
65280;BME280;51878;55.748;48.742;2022-11-21T03:24:29;99661.13;;;-5.22;99.09
65280;BME280;51878;55.748;48.742;2022-11-21T03:26:56;99643.09;;;-5.47;99.57
65280;BME280;51878;55.748;48.742;2022-11-21T03:29:23;99644.06;;;-5.49;99.79
65280;BME280;51878;55.748;48.742;2022-11-21T03:31:50;99661.19;;;-5.23;99.29
65280;BME280;51878;55.748;48.742;2022-11-21T03:34:17;99659.13;;;-5.34;100.00
65280;BME280;51878;55.748;48.742;2022-11-21T03:36:44;99632.63;;;-5.32;99.89
65280;BME280;51878;55.748;48.742;2022-11-21T03:39:11;99590.47;;;-5.51;99.74
65280;BME280;51878;55.748;48.742;2022-11-21T03:41:38;99641.56;;;-5.35;99.88
65280;BME280;51878;55.748;48.742;2022-11-21T03:44:08;99652.34;;;-5.55;100.00
65280;BME280;51878;55.748;48.742;2022-11-21T03:46:37;99590.69;;;-5.72;100.00
65280;BME280;51878;55.748;48.742;2022-11-21T03:49:06;99655.25;;;-5.27;100.00
65280;BME280;51878;55.748;48.742;2022-11-21T03:51:33;99646.00;;;-5.35;100.00
65280;BME280;51878;55.748;48.742;2022-11-21T03:54:01;99645.56;;;-5.44;100.00
65280;BME280;51878;55.748;48.742;2022-11-21T03:56:28;99525.75;;;-6.25;100.00
65280;BME280;51878;55.748;48.742;2022-11-21T03:58:55;99643.41;;;-5.53;100.00
65280;BME280;51878;55.748;48.742;2022-11-21T04:01:23;99626.78;;;-5.55;100.00
65280;BME280;51878;55.748;48.742;2022-11-21T04:03:50;99484.81;;;-6.50;100.00
65280;BME280;51878;55.748;48.742;2022-11-21T04:06:19;99439.34;;;-6.55;100.00
65280;BME280;51878;55.748;48.742;2022-11-21T04:08:47;99622.50;;;-5.24;100.00
65280;BME280;51878;55.748;48.742;2022-11-21T04:11:14;99572.88;;;-5.51;100.00
65280;BME280;51878;55.748;48.742;2022-11-21T04:13:41;99539.75;;;-5.74;100.00
65280;BME280;51878;55.748;48.742;2022-11-21T04:16:08;99626.44;;;-5.15;100.00
65280;BME280;51878;55.748;48.742;2022-11-21T04:18:35;99619.16;;;-5.28;100.00
65280;BME280;51878;55.748;48.742;2022-11-21T04:21:05;99640.44;;;-5.13;100.00
65280;BME280;51878;55.748;48.742;2022-11-21T04:23:33;99570.81;;;-5.46;100.00
65280;BME280;51878;55.748;48.742;2022-11-21T04:26:00;99624.66;;;-5.15;100.00
65280;BME280;51878;55.748;48.742;2022-11-21T04:28:27;99604.94;;;-5.25;100.00
65280;BME280;51878;55.748;48.742;2022-11-21T04:30:54;99622.72;;;-5.11;100.00
65280;BME280;51878;55.748;48.742;2022-11-21T04:33:26;99611.63;;;-5.18;99.86
65280;BME280;51878;55.748;48.742;2022-11-21T04:35:53;99593.78;;;-5.30;99.71
65280;BME280;51878;55.748;48.742;2022-11-21T04:38:23;99607.31;;;-5.36;100.00
65280;BME280;51878;55.748;48.742;2022-11-21T04:40:50;99540.66;;;-5.91;100.00
65280;BME280;51878;55.748;48.742;2022-11-21T04:43:17;99610.03;;;-5.38;100.00
65280;BME280;51878;55.748;48.742;2022-11-21T04:45:44;99596.47;;;-5.48;100.00
65280;BME280;51878;55.748;48.742;2022-11-21T04:48:14;99502.44;;;-5.99;100.00
65280;BME280;51878;55.748;48.742;2022-11-21T04:50:41;99568.56;;;-5.87;100.00
65280;BME280;51878;55.748;48.742;2022-11-21T04:53:08;99524.41;;;-5.83;100.00
65280;BME280;51878;55.748;48.742;2022-11-21T04:55:35;99606.38;;;-5.35;100.00
65280;BME280;51878;55.748;48.742;2022-11-21T04:58:02;99557.19;;;-5.87;100.00
65280;BME280;51878;55.748;48.742;2022-11-21T05:00:29;99579.09;;;-5.69;100.00
65280;BME280;51878;55.748;48.742;2022-11-21T05:03:06;99606.63;;;-5.40;100.00
65280;BME280;51878;55.748;48.742;2022-11-21T05:05:33;99596.41;;;-5.46;100.00
65280;BME280;51878;55.748;48.742;2022-11-21T05:08:00;99605.47;;;-5.52;100.00
65280;BME280;51878;55.748;48.742;2022-11-21T05:10:27;99596.75;;;-5.70;100.00
65280;BME280;51878;55.748;48.742;2022-11-21T05:12:58;99551.09;;;-5.72;100.00
65280;BME280;51878;55.748;48.742;2022-11-21T05:15:44;99597.16;;;-5.44;100.00
65280;BME280;51878;55.748;48.742;2022-11-21T05:18:12;99614.19;;;-5.50;100.00
65280;BME280;51878;55.748;48.742;2022-11-21T05:20:39;99562.13;;;-5.81;100.00
65280;BME280;51878;55.748;48.742;2022-11-21T05:23:07;99534.72;;;-5.78;100.00
65280;BME280;51878;55.748;48.742;2022-11-21T05:25:34;99606.41;;;-5.20;100.00
65280;BME280;51878;55.748;48.742;2022-11-21T05:28:01;99611.28;;;-5.45;100.00
65280;BME280;51878;55.748;48.742;2022-11-21T05:30:28;99610.47;;;-5.30;100.00
65280;BME280;51878;55.748;48.742;2022-11-21T05:32:55;99607.47;;;-5.40;100.00
65280;BME280;51878;55.748;48.742;2022-11-21T05:35:22;99535.84;;;-5.67;100.00
65280;BME280;51878;55.748;48.742;2022-11-21T05:37:55;99595.47;;;-5.29;99.68
65280;BME280;51878;55.748;48.742;2022-11-21T05:40:22;99601.44;;;-5.26;100.00
65280;BME280;51878;55.748;48.742;2022-11-21T05:42:50;99591.34;;;-5.02;99.91
65280;BME280;51878;55.748;48.742;2022-11-21T05:45:35;99584.00;;;-4.96;98.97
65280;BME280;51878;55.748;48.742;2022-11-21T05:48:03;99611.63;;;-4.86;98.53
65280;BME280;51878;55.748;48.742;2022-11-21T05:50:35;99609.84;;;-5.02;99.23
65280;BME280;51878;55.748;48.742;2022-11-21T05:53:05;99597.22;;;-4.96;98.39
65280;BME280;51878;55.748;48.742;2022-11-21T05:55:33;99538.03;;;-5.42;98.12
65280;BME280;51878;55.748;48.742;2022-11-21T05:58:00;99548.28;;;-5.20;98.13
65280;BME280;51878;55.748;48.742;2022-11-21T06:00:27;99603.44;;;-4.97;99.34
65280;BME280;51878;55.748;48.742;2022-11-21T06:02:55;99519.09;;;-5.66;99.04
65280;BME280;51878;55.748;48.742;2022-11-21T06:05:41;99611.44;;;-5.64;100.00
65280;BME280;51878;55.748;48.742;2022-11-21T06:08:08;99608.34;;;-5.90;100.00
65280;BME280;51878;55.748;48.742;2022-11-21T06:10:35;99537.69;;;-6.53;100.00
65280;BME280;51878;55.748;48.742;2022-11-21T06:13:03;99595.00;;;-6.04;100.00
65280;BME280;51878;55.748;48.742;2022-11-21T06:16:12;99604.91;;;-5.74;100.00
65280;BME280;51878;55.748;48.742;2022-11-21T06:18:42;99524.31;;;-5.97;100.00
65280;BME280;51878;55.748;48.742;2022-11-21T06:21:15;99524.34;;;-5.82;100.00
65280;BME280;51878;55.748;48.742;2022-11-21T06:23:46;99584.44;;;-5.53;100.00
65280;BME280;51878;55.748;48.742;2022-11-21T06:26:15;99549.50;;;-5.58;100.00
65280;BME280;51878;55.748;48.742;2022-11-21T06:28:44;99613.66;;;-5.56;100.00
65280;BME280;51878;55.748;48.742;2022-11-21T06:31:17;99547.75;;;-5.75;100.00
65280;BME280;51878;55.748;48.742;2022-11-21T06:33:45;99614.28;;;-5.02;100.00
65280;BME280;51878;55.748;48.742;2022-11-21T06:36:16;99602.84;;;-4.87;100.00
65280;BME280;51878;55.748;48.742;2022-11-21T06:38:44;99547.59;;;-5.72;99.73
65280;BME280;51878;55.748;48.742;2022-11-21T06:41:22;99592.47;;;-5.72;100.00
65280;BME280;51878;55.748;48.742;2022-11-21T06:43:50;99569.94;;;-5.62;100.00
65280;BME280;51878;55.748;48.742;2022-11-21T06:46:17;99607.47;;;-5.73;100.00
65280;BME280;51878;55.748;48.742;2022-11-21T06:48:51;99607.50;;;-5.90;100.00
65280;BME280;51878;55.748;48.742;2022-11-21T06:51:23;99441.00;;;-6.87;100.00
65280;BME280;51878;55.748;48.742;2022-11-21T06:53:56;99620.44;;;-5.68;100.00
65280;BME280;51878;55.748;48.742;2022-11-21T06:56:24;99572.91;;;-5.68;100.00
65280;BME280;51878;55.748;48.742;2022-11-21T06:58:52;99632.06;;;-5.55;100.00
65280;BME280;51878;55.748;48.742;2022-11-21T07:01:19;99602.56;;;-5.63;100.00
65280;BME280;51878;55.748;48.742;2022-11-21T07:03:46;99562.13;;;-5.97;100.00
65280;BME280;51878;55.748;48.742;2022-11-21T07:06:14;99621.06;;;-5.14;100.00
65280;BME280;51878;55.748;48.742;2022-11-21T07:08:41;99604.13;;;-4.78;100.00
65280;BME280;51878;55.748;48.742;2022-11-21T07:11:12;99447.63;;;-5.63;100.00
65280;BME280;51878;55.748;48.742;2022-11-21T07:13:55;99546.47;;;-5.03;97.46
65280;BME280;51878;55.748;48.742;2022-11-21T07:16:22;99582.22;;;-4.34;97.10
65280;BME280;51878;55.748;48.742;2022-11-21T07:18:52;99562.19;;;-4.38;96.59
65280;BME280;51878;55.748;48.742;2022-11-21T07:21:19;99587.69;;;-4.07;96.05
65280;BME280;51878;55.748;48.742;2022-11-21T07:23:46;99543.72;;;-4.09;94.73
65280;BME280;51878;55.748;48.742;2022-11-21T07:26:13;99581.00;;;-3.84;93.54
65280;BME280;51878;55.748;48.742;2022-11-21T07:28:41;99603.78;;;-3.37;92.26
65280;BME280;51878;55.748;48.742;2022-11-21T07:31:09;99538.94;;;-3.74;91.03
65280;BME280;51878;55.748;48.742;2022-11-21T07:33:39;99592.13;;;-3.48;90.30
65280;BME280;51878;55.748;48.742;2022-11-21T07:36:10;99613.13;;;-3.31;90.80
65280;BME280;51878;55.748;48.742;2022-11-21T07:38:37;99601.50;;;-3.57;89.16
65280;BME280;51878;55.748;48.742;2022-11-21T07:41:04;99594.31;;;-4.00;91.44
65280;BME280;51878;55.748;48.742;2022-11-21T07:43:33;99577.31;;;-3.96;92.07
65280;BME280;51878;55.748;48.742;2022-11-21T07:46:00;99559.91;;;-4.00;91.77
65280;BME280;51878;55.748;48.742;2022-11-21T07:48:27;99523.97;;;-4.04;90.98
65280;BME280;51878;55.748;48.742;2022-11-21T07:50:54;99550.63;;;-4.67;92.62
65280;BME280;51878;55.748;48.742;2022-11-21T07:53:21;99606.56;;;-4.13;93.27
65280;BME280;51878;55.748;48.742;2022-11-21T07:55:49;99549.47;;;-4.93;93.72
65280;BME280;51878;55.748;48.742;2022-11-21T07:58:16;99626.38;;;-4.66;96.19
65280;BME280;51878;55.748;48.742;2022-11-21T08:00:43;99608.66;;;-4.80;97.04
65280;BME280;51878;55.748;48.742;2022-11-21T08:03:12;99560.53;;;-5.03;96.98
65280;BME280;51878;55.748;48.742;2022-11-21T08:05:41;99580.25;;;-5.08;97.92
65280;BME280;51878;55.748;48.742;2022-11-21T08:08:10;99643.63;;;-4.91;99.10
65280;BME280;51878;55.748;48.742;2022-11-21T08:10:40;99581.53;;;-5.15;98.94
65280;BME280;51878;55.748;48.742;2022-11-21T08:13:07;99646.06;;;-5.04;99.68
65280;BME280;51878;55.748;48.742;2022-11-21T08:15:35;99656.25;;;-4.64;99.47
65280;BME280;51878;55.748;48.742;2022-11-21T08:18:07;99474.75;;;-5.92;99.10
65280;BME280;51878;55.748;48.742;2022-11-21T08:20:34;99631.16;;;-4.57;98.77
65280;BME280;51878;55.748;48.742;2022-11-21T08:23:01;99648.97;;;-4.77;99.01
65280;BME280;51878;55.748;48.742;2022-11-21T08:25:29;99512.59;;;-5.60;99.03
65280;BME280;51878;55.748;48.742;2022-11-21T08:27:56;99653.66;;;-4.97;99.86
65280;BME280;51878;55.748;48.742;2022-11-21T08:30:24;99650.25;;;-4.68;99.10
65280;BME280;51878;55.748;48.742;2022-11-21T08:32:51;99585.78;;;-4.97;98.90
65280;BME280;51878;55.748;48.742;2022-11-21T08:35:19;99570.25;;;-5.19;98.74
65280;BME280;51878;55.748;48.742;2022-11-21T08:37:46;99611.78;;;-5.05;99.54
65280;BME280;51878;55.748;48.742;2022-11-21T08:40:13;99493.38;;;-5.46;100.00
65280;BME280;51878;55.748;48.742;2022-11-21T08:42:40;99540.16;;;-5.01;98.90
65280;BME280;51878;55.748;48.742;2022-11-21T08:45:07;99550.53;;;-4.66;97.50
65280;BME280;51878;55.748;48.742;2022-11-21T08:47:34;99549.88;;;-4.85;97.31
65280;BME280;51878;55.748;48.742;2022-11-21T08:50:02;99617.34;;;-4.62;98.20
65280;BME280;51878;55.748;48.742;2022-11-21T08:52:34;99561.59;;;-4.89;98.10
65280;BME280;51878;55.748;48.742;2022-11-21T08:55:01;99590.03;;;-4.47;97.78
65280;BME280;51878;55.748;48.742;2022-11-21T08:57:29;99585.75;;;-4.49;97.54
65280;BME280;51878;55.748;48.742;2022-11-21T08:59:57;99615.94;;;-4.38;98.33
65280;BME280;51878;55.748;48.742;2022-11-21T09:02:24;99536.41;;;-4.96;98.96
65280;BME280;51878;55.748;48.742;2022-11-21T09:04:51;99598.81;;;-4.46;99.08
65280;BME280;51878;55.748;48.742;2022-11-21T09:07:19;99554.56;;;-4.90;99.96
65280;BME280;51878;55.748;48.742;2022-11-21T09:09:46;99503.69;;;-5.10;99.89
65280;BME280;51878;55.748;48.742;2022-11-21T09:12:13;99492.44;;;-5.13;99.36
65280;BME280;51878;55.748;48.742;2022-11-21T09:14:40;99548.09;;;-5.01;100.00
65280;BME280;51878;55.748;48.742;2022-11-21T09:17:25;99543.31;;;-4.94;100.00
65280;BME280;51878;55.748;48.742;2022-11-21T09:20:11;99486.31;;;-5.30;100.00
65280;BME280;51878;55.748;48.742;2022-11-21T09:22:38;99593.81;;;-4.37;100.00
65280;BME280;51878;55.748;48.742;2022-11-21T09:25:05;99575.94;;;-4.63;100.00
65280;BME280;51878;55.748;48.742;2022-11-21T09:27:32;99520.44;;;-4.79;100.00
65280;BME280;51878;55.748;48.742;2022-11-21T09:29:59;99593.25;;;-4.42;100.00
65280;BME280;51878;55.748;48.742;2022-11-21T09:32:27;99595.34;;;-4.02;100.00
65280;BME280;51878;55.748;48.742;2022-11-21T09:34:54;99531.13;;;-4.06;98.46
65280;BME280;51878;55.748;48.742;2022-11-21T09:37:21;99390.53;;;-4.73;97.71
65280;BME280;51878;55.748;48.742;2022-11-21T09:39:48;99559.34;;;-3.90;97.00
65280;BME280;51878;55.748;48.742;2022-11-21T09:45:14;99543.50;;;-4.51;100.00
65280;BME280;51878;55.748;48.742;2022-11-21T09:47:46;99513.72;;;-4.54;99.20
65280;BME280;51878;55.748;48.742;2022-11-21T09:53:20;99556.16;;;-3.81;99.31
65280;BME280;51878;55.748;48.742;2022-11-21T09:58:25;99585.31;;;-3.24;96.00
65280;BME280;51878;55.748;48.742;2022-11-21T10:00:55;99521.50;;;-3.21;96.04
65280;BME280;51878;55.748;48.742;2022-11-21T10:03:28;99570.00;;;-2.77;94.34
65280;BME280;51878;55.748;48.742;2022-11-21T10:06:00;99508.09;;;-3.05;93.58
65280;BME280;51878;55.748;48.742;2022-11-21T10:08:43;99584.19;;;-2.78;93.72
65280;BME280;51878;55.748;48.742;2022-11-21T10:11:33;99581.16;;;-2.72;94.16
65280;BME280;51878;55.748;48.742;2022-11-21T10:17:27;99535.25;;;-3.43;92.92
65280;BME280;51878;55.748;48.742;2022-11-21T10:25:38;99568.03;;;-3.02;95.46
65280;BME280;51878;55.748;48.742;2022-11-21T10:28:20;99532.00;;;-3.19;95.20
65280;BME280;51878;55.748;48.742;2022-11-21T10:30:49;99513.75;;;-3.24;93.94
65280;BME280;51878;55.748;48.742;2022-11-21T10:33:29;99572.53;;;-3.17;94.42
65280;BME280;51878;55.748;48.742;2022-11-21T10:36:30;99585.16;;;-2.79;93.47
65280;BME280;51878;55.748;48.742;2022-11-21T10:39:04;99527.84;;;-3.23;93.64
65280;BME280;51878;55.748;48.742;2022-11-21T10:41:50;99505.03;;;-3.40;95.51
65280;BME280;51878;55.748;48.742;2022-11-21T10:44:26;99572.34;;;-3.43;95.44
65280;BME280;51878;55.748;48.742;2022-11-21T10:47:20;99385.28;;;-4.44;96.82
65280;BME280;51878;55.748;48.742;2022-11-21T10:52:46;99521.53;;;-3.49;97.36
65280;BME280;51878;55.748;48.742;2022-11-21T10:55:16;99555.78;;;-3.46;96.46
65280;BME280;51878;55.748;48.742;2022-11-21T10:57:45;99577.66;;;-3.57;98.74
65280;BME280;51878;55.748;48.742;2022-11-21T11:00:14;99572.50;;;-3.89;99.94
65280;BME280;51878;55.748;48.742;2022-11-21T11:03:01;99531.66;;;-3.56;99.12
65280;BME280;51878;55.748;48.742;2022-11-21T11:05:33;99541.56;;;-3.31;98.28
65280;BME280;51878;55.748;48.742;2022-11-21T11:08:13;99565.47;;;-2.89;97.41
65280;BME280;51878;55.748;48.742;2022-11-21T11:10:45;99563.84;;;-2.78;96.84
65280;BME280;51878;55.748;48.742;2022-11-21T11:13:28;99520.72;;;-3.08;95.87
65280;BME280;51878;55.748;48.742;2022-11-21T11:16:19;99559.81;;;-2.71;95.44
65280;BME280;51878;55.748;48.742;2022-11-21T11:18:57;99506.19;;;-3.03;95.60
65280;BME280;51878;55.748;48.742;2022-11-21T11:21:30;99463.63;;;-3.56;95.46
65280;BME280;51878;55.748;48.742;2022-11-21T11:26:58;99550.91;;;-2.97;96.67
65280;BME280;51878;55.748;48.742;2022-11-21T11:29:30;99552.13;;;-3.02;97.84
65280;BME280;51878;55.748;48.742;2022-11-21T11:36:55;99552.47;;;-3.50;97.35
65280;BME280;51878;55.748;48.742;2022-11-21T11:39:49;99485.97;;;-4.03;100.00
65280;BME280;51878;55.748;48.742;2022-11-21T11:45:31;99575.72;;;-3.84;100.00
65280;BME280;51878;55.748;48.742;2022-11-21T11:48:19;99491.72;;;-4.25;100.00
65280;BME280;51878;55.748;48.742;2022-11-21T11:50:55;99509.47;;;-4.12;100.00
65280;BME280;51878;55.748;48.742;2022-11-21T11:53:40;99579.44;;;-3.72;100.00
65280;BME280;51878;55.748;48.742;2022-11-21T11:58:50;99559.00;;;-3.56;99.45
65280;BME280;51878;55.748;48.742;2022-11-21T12:01:23;99489.09;;;-3.96;98.71
65280;BME280;51878;55.748;48.742;2022-11-21T12:03:58;99461.22;;;-4.61;100.00
65280;BME280;51878;55.748;48.742;2022-11-21T12:07:02;99587.13;;;-4.12;100.00
65280;BME280;51878;55.748;48.742;2022-11-21T12:12:44;99542.22;;;-4.44;100.00
65280;BME280;51878;55.748;48.742;2022-11-21T12:15:23;99572.44;;;-4.18;100.00
65280;BME280;51878;55.748;48.742;2022-11-21T12:21:04;99585.31;;;-3.81;100.00
65280;BME280;51878;55.748;48.742;2022-11-21T12:43:25;99595.47;;;-4.50;100.00
65280;BME280;51878;55.748;48.742;2022-11-21T12:46:20;99601.56;;;-4.64;100.00
65280;BME280;51878;55.748;48.742;2022-11-21T12:52:19;99558.56;;;-4.67;100.00
65280;BME280;51878;55.748;48.742;2022-11-21T12:55:27;99534.72;;;-4.97;100.00
65280;BME280;51878;55.748;48.742;2022-11-21T12:58:26;99584.75;;;-4.79;100.00
65280;BME280;51878;55.748;48.742;2022-11-21T13:04:13;99592.19;;;-4.69;100.00
65280;BME280;51878;55.748;48.742;2022-11-21T13:06:43;99564.56;;;-4.80;100.00
65280;BME280;51878;55.748;48.742;2022-11-21T13:09:16;99501.56;;;-5.19;100.00
65280;BME280;51878;55.748;48.742;2022-11-21T13:11:59;99563.94;;;-5.01;100.00
65280;BME280;51878;55.748;48.742;2022-11-21T13:19:57;99586.25;;;-4.43;100.00
65280;BME280;51878;55.748;48.742;2022-11-21T13:25:10;99545.47;;;-4.85;100.00
65280;BME280;51878;55.748;48.742;2022-11-21T13:27:40;99573.78;;;-4.87;100.00
65280;BME280;51878;55.748;48.742;2022-11-21T13:32:52;99577.44;;;-4.43;100.00
65280;BME280;51878;55.748;48.742;2022-11-21T13:37:59;99587.34;;;-4.31;100.00
65280;BME280;51878;55.748;48.742;2022-11-21T13:45:58;99570.66;;;-4.63;100.00
65280;BME280;51878;55.748;48.742;2022-11-21T13:51:51;99580.59;;;-4.83;100.00
65280;BME280;51878;55.748;48.742;2022-11-21T13:54:23;99580.81;;;-4.87;100.00
65280;BME280;51878;55.748;48.742;2022-11-21T14:02:40;99569.00;;;-4.96;100.00
65280;BME280;51878;55.748;48.742;2022-11-21T14:05:18;99564.38;;;-4.92;100.00
65280;BME280;51878;55.748;48.742;2022-11-21T14:08:19;99442.06;;;-5.74;100.00
65280;BME280;51878;55.748;48.742;2022-11-21T14:10:48;99539.00;;;-5.11;100.00
65280;BME280;51878;55.748;48.742;2022-11-21T14:13:29;99375.16;;;-6.20;100.00
65280;BME280;51878;55.748;48.742;2022-11-21T14:18:55;99478.91;;;-5.55;100.00
65280;BME280;51878;55.748;48.742;2022-11-21T14:21:28;99545.91;;;-5.24;100.00
65280;BME280;51878;55.748;48.742;2022-11-21T14:24:03;99362.81;;;-6.20;100.00
65280;BME280;51878;55.748;48.742;2022-11-21T14:26:37;99417.81;;;-5.65;100.00
65280;BME280;51878;55.748;48.742;2022-11-21T14:29:19;99519.53;;;-4.78;100.00
65280;BME280;51878;55.748;48.742;2022-11-21T14:31:49;99513.91;;;-4.58;100.00
65280;BME280;51878;55.748;48.742;2022-11-21T14:34:26;99505.78;;;-4.54;100.00
65280;BME280;51878;55.748;48.742;2022-11-21T14:36:57;99530.28;;;-4.51;100.00
65280;BME280;51878;55.748;48.742;2022-11-21T14:39:27;99436.19;;;-5.15;100.00
65280;BME280;51878;55.748;48.742;2022-11-21T14:42:04;99532.41;;;-5.04;100.00
65280;BME280;51878;55.748;48.742;2022-11-21T14:44:36;99426.41;;;-5.77;100.00
65280;BME280;51878;55.748;48.742;2022-11-21T14:47:18;99480.00;;;-5.27;100.00